Surry, Maine
Current Conditions -  °F | °C
As of 9:35 AM on Friday 19 Dec 2014 (Local Time) from KBHB Reporting Station
Overcast Overcast  
Wind Chill: 23°   Ceiling: 1700
Heat Index: 30°   Visibility: 10mi
Dew Point: 28°   Wind: 7mph
Humidity: 93%   Direction: 310°NW
Pressure: 29.88"   Gusts: NA
Location:  44.5°N, 68.5°W
Report Text: KBHB 191435Z AUTO 31006KT 10SM BKN017 OVC023 M01/M02 A2988 RMK AO1
Loading
Personal Weather Stations






























Interactive Weather Map New forecast layout! Learn more

10-Day Weather Forecast

Advertisements
Track Severe Weather on mobile